createdAt,value
2018-06-02T00:00:42.365Z,101181.25
2018-06-02T00:02:45.665Z,101179.75
2018-06-02T00:04:49.045Z,101160.78
2018-06-02T00:06:52.446Z,101171.97
2018-06-02T00:08:55.857Z,101170.39
2018-06-02T00:10:59.162Z,101160.69
2018-06-02T00:13:02.645Z,101140.25
2018-06-02T00:15:05.962Z,101153.79
2018-06-02T00:17:09.279Z,101176.08
2018-06-02T00:19:13.373Z,101164.55
2018-06-02T00:21:16.704Z,101174.53
2018-06-02T00:23:22.827Z,101146.17
2018-06-02T00:25:26.937Z,101160.48
2018-06-02T00:27:31.023Z,101167.34
2018-06-02T00:29:34.323Z,101175.34
2018-06-02T00:31:37.645Z,101174.60
2018-06-02T00:33:41.718Z,101175.20
2018-06-02T00:35:45.049Z,101171.42
2018-06-02T00:37:49.112Z,101176.45
2018-06-02T00:39:52.449Z,101167.74
2018-06-02T00:41:56.518Z,101170.08
2018-06-02T00:43:59.854Z,101173.71
2018-06-02T00:46:04.093Z,101174.22
2018-06-02T00:48:07.397Z,101176.72
2018-06-02T00:50:10.719Z,101174.97
2018-06-02T00:52:14.009Z,101178.71
2018-06-02T00:54:17.304Z,101178.25
2018-06-02T00:56:20.627Z,101167.41
2018-06-02T00:58:23.959Z,101168.33
2018-06-02T01:00:27.320Z,101180.30
2018-06-02T01:02:30.643Z,101181.59
2018-06-02T01:04:33.978Z,101181.11
2018-06-02T01:06:38.048Z,101179.44
2018-06-02T01:08:41.405Z,101174.11
2018-06-02T01:10:44.723Z,101164.80
2018-06-02T01:12:48.021Z,101167.88
2018-06-02T01:14:51.332Z,101159.94
2018-06-02T01:16:54.643Z,101154.19
2018-06-02T01:18:58.719Z,101161.27
2018-06-02T01:21:02.053Z,101167.28
2018-06-02T01:23:06.122Z,101158.98
2018-06-02T01:25:09.468Z,101161.95
2018-06-02T01:27:12.794Z,101154.48
2018-06-02T01:29:16.099Z,101157.07
2018-06-02T01:31:19.507Z,101163.23
2018-06-02T01:33:22.827Z,101136.59
2018-06-02T01:35:26.349Z,101156.61
2018-06-02T01:37:29.656Z,101158.23
2018-06-02T01:39:32.982Z,101147.23
2018-06-02T01:41:36.272Z,101154.00
2018-06-02T01:43:39.583Z,101144.23
2018-06-02T01:45:43.722Z,101146.58
2018-06-02T01:47:47.018Z,101144.77
2018-06-02T01:49:50.344Z,101152.64
2018-06-02T01:51:53.667Z,101148.31
2018-06-02T01:53:57.719Z,101153.88
2018-06-02T01:56:01.039Z,101144.71
2018-06-02T01:58:04.448Z,101142.80
2018-06-02T02:00:08.518Z,101106.69
2018-06-02T02:02:12.662Z,101144.89
2018-06-02T02:04:16.004Z,101136.30
2018-06-02T02:06:19.307Z,101151.75
2018-06-02T02:08:22.623Z,101151.05
2018-06-02T02:10:26.054Z,101146.36
2018-06-02T02:12:30.115Z,101143.24
2018-06-02T02:14:33.462Z,101152.14
2018-06-02T02:16:36.785Z,101146.45
2018-06-02T02:18:40.078Z,101153.74
2018-06-02T02:20:43.372Z,101143.99
2018-06-02T02:22:46.751Z,101144.41
2018-06-02T02:24:50.809Z,101144.53
2018-06-02T02:26:54.142Z,101138.97
2018-06-02T02:28:57.452Z,101139.59
2018-06-02T02:31:00.760Z,101145.86
2018-06-02T02:33:04.124Z,101153.45
2018-06-02T02:35:07.415Z,101151.45
2018-06-02T02:37:10.747Z,101156.92
2018-06-02T02:39:14.041Z,101151.48
2018-06-02T02:41:17.359Z,101141.64
2018-06-02T02:43:21.425Z,101143.66
2018-06-02T02:45:24.878Z,101156.16
2018-06-02T02:47:28.202Z,101158.35
2018-06-02T02:49:31.504Z,101164.80
2018-06-02T02:51:34.868Z,101170.45
2018-06-02T02:53:38.197Z,101156.70
2018-06-02T02:55:41.499Z,101151.72
2018-06-02T02:57:44.893Z,101151.44
2018-06-02T02:59:48.334Z,101143.46
2018-06-02T03:01:51.658Z,101156.96
2018-06-02T03:03:54.963Z,101156.77
2018-06-02T03:05:58.294Z,101162.20
2018-06-02T03:08:01.607Z,101166.17
2018-06-02T03:10:04.996Z,101166.69
2018-06-02T03:12:08.347Z,101160.93
2018-06-02T03:14:12.434Z,101161.97
2018-06-02T03:16:15.741Z,101156.97
2018-06-02T03:18:19.050Z,101157.50
2018-06-02T03:20:23.135Z,101156.75
2018-06-02T03:22:26.433Z,101159.67
2018-06-02T03:24:29.742Z,101154.02
2018-06-02T03:26:33.806Z,101160.09
2018-06-02T03:28:37.100Z,101158.84
2018-06-02T03:30:40.430Z,101148.13
2018-06-02T03:32:44.529Z,101147.81
2018-06-02T03:34:48.604Z,101153.59
2018-06-02T03:36:51.905Z,101154.16
2018-06-02T03:38:55.207Z,101149.92
2018-06-02T03:40:58.523Z,101134.75
2018-06-02T03:43:02.594Z,101152.33
2018-06-02T03:45:05.889Z,101149.97
2018-06-02T03:47:09.185Z,101153.55
2018-06-02T03:49:12.806Z,101151.73
2018-06-02T03:51:16.884Z,101160.97
2018-06-02T03:53:25.096Z,101159.73
2018-06-02T03:55:28.400Z,101160.52
2018-06-02T03:57:31.705Z,101162.37
2018-06-02T03:59:35.805Z,101159.89
2018-06-02T04:01:39.109Z,101162.56
2018-06-02T04:03:43.166Z,101164.31
2018-06-02T04:05:46.510Z,101160.42
2018-06-02T04:07:50.612Z,101153.37
2018-06-02T04:09:55.618Z,101156.20
2018-06-02T04:11:58.922Z,101125.76
2018-06-02T04:14:02.274Z,101166.42
2018-06-02T04:16:05.576Z,101170.98
2018-06-02T04:18:08.871Z,101166.11
2018-06-02T04:20:12.191Z,101171.33
2018-06-02T04:22:15.508Z,101170.85
2018-06-02T04:24:19.585Z,101170.09
2018-06-02T04:26:22.907Z,101168.64
2018-06-02T04:28:26.225Z,101176.74
2018-06-02T04:30:29.519Z,101174.23
2018-06-02T04:32:32.893Z,101176.89
2018-06-02T04:34:36.213Z,101176.19
2018-06-02T04:36:39.505Z,101172.05
2018-06-02T04:38:42.819Z,101166.79
2018-06-02T04:40:46.111Z,101173.20
2018-06-02T04:42:49.415Z,101170.77
2018-06-02T04:44:52.805Z,101170.93
2018-06-02T04:46:56.920Z,101168.98
2018-06-02T04:49:00.237Z,101173.92
2018-06-02T04:51:03.637Z,101178.77
2018-06-02T04:53:06.950Z,101177.86
2018-06-02T04:55:10.263Z,101175.01
2018-06-02T04:57:13.783Z,101179.70
2018-06-02T04:59:17.104Z,101177.95
2018-06-02T05:01:20.499Z,101173.42
2018-06-02T05:03:23.832Z,101178.70
2018-06-02T05:05:27.123Z,101177.88
2018-06-02T05:07:30.610Z,101187.91
2018-06-02T05:09:33.969Z,101193.05
2018-06-02T05:11:37.281Z,101174.36
2018-06-02T05:13:40.588Z,101186.56
2018-06-02T05:15:43.934Z,101181.22
2018-06-02T05:17:47.987Z,101170.14
2018-06-02T05:19:51.366Z,101201.89
2018-06-02T05:21:54.773Z,101200.81
2018-06-02T05:23:58.085Z,101195.83
2018-06-02T05:26:01.578Z,101192.98
2018-06-02T05:28:04.954Z,101194.41
2018-06-02T05:30:08.264Z,101200.22
2018-06-02T05:32:11.607Z,101201.80
2018-06-02T05:34:14.962Z,101194.56
2018-06-02T05:36:19.091Z,101203.81
2018-06-02T05:38:23.175Z,101208.15
2018-06-02T05:40:26.550Z,101214.61
2018-06-02T05:42:29.863Z,101212.66
2018-06-02T05:44:33.194Z,101205.95
2018-06-02T05:46:36.547Z,101208.70
2018-06-02T05:48:40.018Z,101196.52
2018-06-02T05:50:43.385Z,101178.95
2018-06-02T05:52:46.737Z,101208.56
2018-06-02T05:54:50.826Z,101199.37
2018-06-02T05:56:54.116Z,101198.50
2018-06-02T05:58:57.501Z,101218.38
2018-06-02T06:01:00.833Z,101224.02
2018-06-02T06:03:04.964Z,101213.23
2018-06-02T06:05:08.303Z,101216.55
2018-06-02T06:07:11.611Z,101205.46
2018-06-02T06:09:15.021Z,101208.30
2018-06-02T06:11:19.224Z,101215.81
2018-06-02T06:13:22.623Z,101212.94
2018-06-02T06:15:26.723Z,101212.69
2018-06-02T06:17:30.882Z,101214.33
2018-06-02T06:19:34.414Z,101214.80
2018-06-02T06:21:37.764Z,101211.86
2018-06-02T06:23:41.098Z,101217.39
2018-06-02T06:25:44.416Z,101215.15
2018-06-02T06:27:48.489Z,101215.81
2018-06-02T06:29:51.836Z,101213.98
2018-06-02T06:31:55.196Z,101212.02
2018-06-02T06:33:58.591Z,101217.84
2018-06-02T06:36:02.393Z,101213.91
2018-06-02T06:38:06.494Z,101215.44
2018-06-02T06:40:09.843Z,101205.47
2018-06-02T06:42:13.213Z,101220.91
2018-06-02T06:44:17.315Z,101228.70
2018-06-02T06:46:22.757Z,101227.72
2018-06-02T06:48:26.902Z,101224.28
2018-06-02T06:50:30.282Z,101223.30
2018-06-02T06:52:33.601Z,101230.95
2018-06-02T06:54:36.926Z,101220.36
2018-06-02T06:56:40.270Z,101221.00
2018-06-02T06:58:43.592Z,101214.36
2018-06-02T07:00:46.913Z,101220.73
2018-06-02T07:02:51.016Z,101220.73
2018-06-02T07:04:55.095Z,101217.25
2018-06-02T07:06:58.456Z,101216.65
2018-06-02T07:09:01.862Z,101215.37
2018-06-02T07:11:05.221Z,101222.34
2018-06-02T07:13:08.565Z,101223.94
2018-06-02T07:15:11.905Z,101220.81
2018-06-02T07:17:16.119Z,101222.81
2018-06-02T07:19:19.504Z,101225.09
2018-06-02T07:21:22.888Z,101231.45
2018-06-02T07:23:27.090Z,101229.80
2018-06-02T07:25:31.217Z,101234.47
2018-06-02T07:27:35.378Z,101236.98
2018-06-02T07:29:38.677Z,101233.68
2018-06-02T07:31:42.141Z,101223.45
2018-06-02T07:33:46.271Z,101232.11
2018-06-02T07:35:49.655Z,101240.66
2018-06-02T07:37:53.018Z,101220.70
2018-06-02T07:39:56.489Z,101250.63
2018-06-02T07:41:59.898Z,101242.17
2018-06-02T07:44:04.085Z,101238.61
2018-06-02T07:46:07.404Z,101239.86
2018-06-02T07:48:11.461Z,101240.66
2018-06-02T07:50:14.990Z,101234.73
2018-06-02T07:52:18.334Z,101242.22
2018-06-02T07:54:21.678Z,101241.86
2018-06-02T07:56:26.083Z,101237.69
2018-06-02T07:58:29.389Z,101244.60
2018-06-02T08:00:32.803Z,101238.24
2018-06-02T08:02:36.240Z,101208.42
2018-06-02T08:04:39.586Z,101242.03
2018-06-02T08:06:42.902Z,101241.80
2018-06-02T08:08:46.221Z,101237.47
2018-06-02T08:10:49.520Z,101237.20
2018-06-02T08:12:52.834Z,101234.15
2018-06-02T08:14:56.164Z,101239.59
2018-06-02T08:16:59.463Z,101234.30
2018-06-02T08:19:02.789Z,101217.01
2018-06-02T08:21:06.803Z,101240.20
2018-06-02T08:23:10.090Z,101235.88
2018-06-02T08:25:13.378Z,101236.66
2018-06-02T08:27:16.958Z,101242.44
2018-06-02T08:29:21.019Z,101239.49
2018-06-02T08:31:25.087Z,101237.57
2018-06-02T08:33:28.485Z,101242.00
2018-06-02T08:35:31.733Z,101244.76
2018-06-02T08:37:35.804Z,101243.85
2018-06-02T08:39:39.210Z,101242.67
2018-06-02T08:41:43.288Z,101240.30
2018-06-02T08:43:46.579Z,101236.79
2018-06-02T08:45:49.907Z,101249.97
2018-06-02T08:47:53.215Z,101250.42
2018-06-02T08:49:56.603Z,101248.30
2018-06-02T08:51:59.927Z,101244.52
2018-06-02T08:54:03.222Z,101252.08
2018-06-02T08:56:06.531Z,101250.82
2018-06-02T08:58:09.932Z,101253.61
2018-06-02T09:00:13.260Z,101254.67
2018-06-02T09:02:16.685Z,101260.00
2018-06-02T09:04:20.048Z,101260.26
2018-06-02T09:06:23.356Z,101255.69
2018-06-02T09:08:26.681Z,101259.62
2018-06-02T09:10:30.005Z,101266.83
2018-06-02T09:12:34.081Z,101235.68
2018-06-02T09:14:37.393Z,101269.16
2018-06-02T09:16:40.765Z,101272.20
2018-06-02T09:18:44.089Z,101266.96
2018-06-02T09:20:48.152Z,101265.47
2018-06-02T09:22:51.462Z,101269.33
2018-06-02T09:24:54.786Z,101266.52
2018-06-02T09:26:58.065Z,101258.59
2018-06-02T09:29:01.402Z,101270.11
2018-06-02T09:31:04.711Z,101264.97
2018-06-02T09:33:08.022Z,101272.17
2018-06-02T09:35:11.398Z,101275.56
2018-06-02T09:37:14.634Z,101267.01
2018-06-02T09:39:18.732Z,101268.38
2018-06-02T09:41:22.816Z,101271.81
2018-06-02T09:43:26.155Z,101270.06
2018-06-02T09:45:29.469Z,101268.33
2018-06-02T09:47:32.866Z,101263.06
2018-06-02T09:49:36.203Z,101258.31
2018-06-02T09:51:39.572Z,101279.91
2018-06-02T09:53:42.934Z,101274.13
2018-06-02T09:55:46.263Z,101270.91
2018-06-02T09:57:49.610Z,101273.33
2018-06-02T09:59:52.925Z,101264.05
2018-06-02T10:01:57.006Z,101261.88
2018-06-02T10:04:00.321Z,101229.55
2018-06-02T10:08:13.098Z,101275.43
2018-06-02T10:10:16.445Z,101273.80
2018-06-02T10:12:19.785Z,101271.08
2018-06-02T10:14:23.860Z,101270.69
2018-06-02T10:16:27.180Z,101268.09
2018-06-02T10:18:30.541Z,101272.68
2018-06-02T10:20:33.843Z,101273.84
2018-06-02T10:22:37.179Z,101276.80
2018-06-02T10:24:41.280Z,101265.45
2018-06-02T10:26:45.364Z,101180.09
2018-06-02T10:28:48.660Z,101265.05
2018-06-02T10:30:52.760Z,101268.22
2018-06-02T10:32:56.055Z,101272.30
2018-06-02T10:34:59.405Z,101245.73
2018-06-02T10:37:03.514Z,101272.04
2018-06-02T10:39:06.873Z,101267.89
2018-06-02T10:41:10.948Z,101274.59
2018-06-02T10:43:14.311Z,101253.05
2018-06-02T10:45:17.624Z,101265.50
2018-06-02T10:47:20.951Z,101252.45
2018-06-02T10:49:24.320Z,101267.95
2018-06-02T10:51:27.627Z,101269.41
2018-06-02T10:53:31.735Z,101272.50
2018-06-02T10:55:35.672Z,101267.21
2018-06-02T10:57:39.918Z,101262.30
2018-06-02T10:59:43.252Z,101276.06
2018-06-02T11:01:47.298Z,101271.92
2018-06-02T11:03:51.073Z,101267.58
2018-06-02T11:05:55.145Z,101268.67
2018-06-02T11:07:58.940Z,101271.38
2018-06-02T11:10:02.253Z,101271.63
2018-06-02T11:12:05.605Z,101266.14
2018-06-02T11:14:08.943Z,101264.88
2018-06-02T11:16:13.064Z,101248.27
2018-06-02T11:18:17.187Z,101267.02
2018-06-02T11:20:21.402Z,101263.18
2018-06-02T11:22:26.180Z,101241.61
2018-06-02T11:24:29.486Z,101244.86
2018-06-02T11:26:32.836Z,101265.66
2018-06-02T11:28:36.283Z,101271.27
2018-06-02T11:30:40.411Z,101265.69
2018-06-02T11:32:44.596Z,101247.20
2018-06-02T11:34:47.936Z,101274.19
2018-06-02T11:36:52.256Z,101260.98
2018-06-02T11:38:55.606Z,101273.71
2018-06-02T11:40:58.953Z,101261.30
2018-06-02T11:43:02.313Z,101274.23
2018-06-02T11:45:05.739Z,101270.72
2018-06-02T11:47:09.057Z,101272.52
2018-06-02T11:49:12.357Z,101243.25
2018-06-02T11:51:15.713Z,101267.23
2018-06-02T11:53:19.188Z,101257.48
2018-06-02T11:55:22.524Z,101267.13
2018-06-02T11:57:25.877Z,101263.65
2018-06-02T11:59:29.187Z,101262.62
2018-06-02T12:01:32.541Z,101262.63
2018-06-02T12:03:36.680Z,101263.41
2018-06-02T12:05:40.140Z,101256.42
2018-06-02T12:07:44.209Z,101246.48
2018-06-02T12:09:48.354Z,101251.42
2018-06-02T12:11:52.426Z,101249.53
2018-06-02T12:13:55.789Z,101247.71
2018-06-02T12:15:59.909Z,101242.52
2018-06-02T12:18:03.220Z,101240.97
2018-06-02T12:20:06.535Z,101243.39
2018-06-02T12:22:10.695Z,101235.67
2018-06-02T12:24:14.048Z,101243.09
2018-06-02T12:26:18.173Z,101249.45
2018-06-02T12:28:22.389Z,101235.56
2018-06-02T12:30:25.715Z,101222.76
2018-06-02T12:32:29.018Z,101231.78
2018-06-02T12:34:32.349Z,101231.34
2018-06-02T12:36:35.659Z,101230.77
2018-06-02T12:38:39.752Z,101217.52
2018-06-02T12:40:43.847Z,101234.16
2018-06-02T12:42:47.140Z,101235.70
2018-06-02T12:44:50.472Z,101240.44
2018-06-02T12:46:53.798Z,101238.14
2018-06-02T12:48:57.118Z,101239.59
2018-06-02T12:51:00.571Z,101116.73
2018-06-02T12:53:03.903Z,101234.81
2018-06-02T12:55:07.228Z,101239.38
2018-06-02T12:57:10.540Z,101229.62
2018-06-02T12:59:13.888Z,101238.31
2018-06-02T13:01:17.266Z,101230.33
2018-06-02T13:03:20.664Z,101224.95
2018-06-02T13:05:24.101Z,101236.83
2018-06-02T13:07:27.430Z,101245.51
2018-06-02T13:09:30.734Z,101232.78
2018-06-02T13:11:34.043Z,101250.17
2018-06-02T13:13:37.723Z,101246.83
2018-06-02T13:15:41.047Z,101224.57
2018-06-02T13:17:45.280Z,101236.87
2018-06-02T13:19:48.602Z,101239.58
2018-06-02T13:21:51.929Z,101225.48
2018-06-02T13:23:55.244Z,101241.65
2018-06-02T13:25:58.549Z,101238.99
2018-06-02T13:28:01.863Z,101234.95
2018-06-02T13:30:05.289Z,101236.26
2018-06-02T13:32:08.581Z,101241.02
2018-06-02T13:34:11.888Z,101240.18
2018-06-02T13:36:15.223Z,101233.79
2018-06-02T13:38:18.530Z,101229.83
2018-06-02T13:40:22.611Z,101238.53
2018-06-02T13:42:25.921Z,101224.95
2018-06-02T13:44:29.212Z,101224.06
2018-06-02T13:46:32.506Z,101226.30
2018-06-02T13:48:35.834Z,101230.23
2018-06-02T13:50:39.166Z,101223.36
2018-06-02T13:52:42.454Z,101225.64
2018-06-02T13:54:45.819Z,101217.33
2018-06-02T13:56:49.944Z,101217.33
2018-06-02T13:58:54.069Z,101223.02
2018-06-02T14:00:57.500Z,101219.55
2018-06-02T14:03:01.634Z,101206.44
2018-06-02T14:05:04.969Z,101217.78
2018-06-02T14:07:08.289Z,101217.22
2018-06-02T14:09:11.583Z,101205.25
2018-06-02T14:11:14.908Z,101176.24
2018-06-02T14:13:18.272Z,101187.03
2018-06-02T14:15:21.645Z,101217.77
2018-06-02T14:17:24.982Z,101212.98
2018-06-02T14:19:28.341Z,101218.92
2018-06-02T14:21:31.643Z,101216.78
2018-06-02T14:23:34.992Z,101209.31
2018-06-02T14:25:38.368Z,101206.73
2018-06-02T14:27:41.695Z,101200.20
2018-06-02T14:29:45.013Z,101203.23
2018-06-02T14:31:48.513Z,101203.25
2018-06-02T14:33:51.886Z,101201.42
2018-06-02T14:35:55.225Z,101207.33
2018-06-02T14:37:59.377Z,101208.67
2018-06-02T14:40:02.696Z,101208.53
2018-06-02T14:42:06.062Z,101203.53
2018-06-02T14:44:09.417Z,101194.30
2018-06-02T14:46:13.526Z,101202.30
2018-06-02T14:48:16.851Z,101196.14
2018-06-02T14:50:20.381Z,101206.53
2018-06-02T14:52:23.790Z,101205.92
2018-06-02T14:54:28.002Z,101209.28
2018-06-02T14:56:31.385Z,101204.92
2018-06-02T14:58:34.718Z,101199.16
2018-06-02T15:00:38.081Z,101184.25
2018-06-02T15:02:42.563Z,101194.99
2018-06-02T15:04:45.916Z,101210.84
2018-06-02T15:06:49.975Z,101203.63
2018-06-02T15:08:53.310Z,101197.27
2018-06-02T15:10:57.390Z,101187.41
2018-06-02T15:13:01.804Z,101200.05
2018-06-02T15:15:05.143Z,101192.45
2018-06-02T15:17:09.429Z,101197.19
2018-06-02T15:19:12.760Z,101194.19
2018-06-02T15:21:16.168Z,101188.77
2018-06-02T15:23:19.475Z,101184.16
2018-06-02T15:25:22.804Z,101188.02
2018-06-02T15:27:27.055Z,101191.11
2018-06-02T15:29:30.556Z,101189.66
2018-06-02T15:31:33.859Z,101194.38
2018-06-02T15:33:37.203Z,101182.87
2018-06-02T15:35:41.270Z,101189.34
2018-06-02T15:37:45.393Z,101189.34
2018-06-02T15:39:48.717Z,101180.30
2018-06-02T15:41:52.847Z,101192.87
2018-06-02T15:43:57.105Z,101182.78
2018-06-02T15:46:01.226Z,101191.52
2018-06-02T15:48:04.526Z,101191.20
2018-06-02T15:50:08.619Z,101187.28
2018-06-02T15:52:11.942Z,101189.60
2018-06-02T15:54:16.044Z,101173.90
2018-06-02T15:56:20.115Z,101166.86
2018-06-02T15:58:24.190Z,101182.36
2018-06-02T16:00:27.541Z,101130.48
2018-06-02T16:02:31.664Z,101177.42
2018-06-02T16:04:35.793Z,101172.33
2018-06-02T16:06:40.001Z,101194.17
2018-06-02T16:08:43.328Z,101194.83
2018-06-02T16:10:46.736Z,101181.61
2018-06-02T16:12:50.041Z,101185.98
2018-06-02T16:14:53.349Z,101183.28
2018-06-02T16:16:57.521Z,101192.06
2018-06-02T16:19:00.809Z,101183.42
2018-06-02T16:21:04.131Z,101191.72
2018-06-02T16:23:07.545Z,101187.23
2018-06-02T16:25:11.653Z,101185.92
2018-06-02T16:27:15.730Z,101195.83
2018-06-02T16:29:19.885Z,101190.05
2018-06-02T16:31:23.169Z,101191.67
2018-06-02T16:33:26.460Z,101195.64
2018-06-02T16:35:30.537Z,101193.17
2018-06-02T16:37:34.606Z,101193.05
2018-06-02T16:39:37.923Z,101189.05
2018-06-02T16:41:41.292Z,101179.81
2018-06-02T16:43:44.590Z,101182.48
2018-06-02T16:45:48.050Z,101182.13
2018-06-02T16:47:52.150Z,101187.52
2018-06-02T16:49:56.273Z,101189.42
2018-06-02T16:52:00.351Z,101187.22
2018-06-02T16:54:03.726Z,101186.05
2018-06-02T16:56:07.027Z,101178.66
2018-06-02T16:58:10.317Z,101171.34
2018-06-02T17:00:13.698Z,101183.36
2018-06-02T17:02:16.991Z,101172.64
2018-06-02T17:04:20.276Z,101185.71
2018-06-02T17:06:23.730Z,101192.62
2018-06-02T17:08:27.078Z,101187.17
2018-06-02T17:10:30.382Z,101184.84
2018-06-02T17:12:33.800Z,101184.52
2018-06-02T17:14:37.874Z,101170.38
2018-06-02T17:16:41.164Z,101181.69
2018-06-02T17:18:44.594Z,101180.23
2018-06-02T17:20:48.525Z,101169.17
2018-06-02T17:22:51.829Z,101177.30
2018-06-02T17:24:55.296Z,101184.59
2018-06-02T17:26:58.608Z,101187.16
2018-06-02T17:29:01.960Z,101189.13
2018-06-02T17:31:06.296Z,101189.55
2018-06-02T17:33:09.992Z,101191.89
2018-06-02T17:35:13.369Z,101196.50
2018-06-02T17:37:16.892Z,101188.92
2018-06-02T17:39:20.294Z,101192.68
2018-06-02T17:41:23.614Z,101189.80
2018-06-02T17:43:26.975Z,101186.16
2018-06-02T17:45:30.307Z,101182.93
2018-06-02T17:47:33.631Z,101183.03
2018-06-02T17:49:37.714Z,101180.84
2018-06-02T17:51:41.002Z,101178.61
2018-06-02T17:53:44.359Z,101180.25
2018-06-02T17:55:47.727Z,101178.05
2018-06-02T17:57:51.106Z,101170.14
2018-06-02T17:59:55.204Z,101167.89
2018-06-02T18:01:58.573Z,101175.23
2018-06-02T18:04:01.895Z,101170.65
2018-06-02T18:08:34.538Z,101161.77
2018-06-02T18:10:39.440Z,101170.39
2018-06-02T18:12:44.387Z,101167.73
2018-06-02T18:14:49.185Z,101170.86
2018-06-02T18:16:53.896Z,101168.52
2018-06-02T18:18:58.713Z,101156.02
2018-06-02T18:21:03.653Z,101151.33
2018-06-02T18:23:08.382Z,101167.38
2018-06-02T18:25:13.106Z,101165.22
2018-06-02T18:27:17.879Z,101160.60
2018-06-02T18:29:22.759Z,101170.54
2018-06-02T18:31:27.495Z,101171.41
2018-06-02T18:33:32.461Z,101181.23
2018-06-02T18:35:37.332Z,101180.80
2018-06-02T18:37:42.061Z,101167.29
2018-06-02T18:39:46.865Z,101177.48
2018-06-02T18:41:51.921Z,101175.84
2018-06-02T18:43:56.797Z,101173.70
2018-06-02T18:46:01.889Z,101174.05
2018-06-02T18:48:06.650Z,101168.64
2018-06-02T18:50:11.898Z,101165.79
2018-06-02T18:52:16.750Z,101169.67
2018-06-02T18:54:21.912Z,101157.01
2018-06-02T18:56:26.343Z,101166.14
2018-06-02T18:58:31.314Z,101164.67
2018-06-02T19:00:36.141Z,101166.64
2018-06-02T19:02:41.257Z,101168.25
2018-06-02T19:04:46.053Z,101163.44
2018-06-02T19:06:50.987Z,101163.14
2018-06-02T19:08:55.733Z,101163.91
2018-06-02T19:11:00.745Z,101161.89
2018-06-02T19:13:05.595Z,101164.81
2018-06-02T19:15:10.371Z,101162.95
2018-06-02T19:17:15.034Z,101164.77
2018-06-02T19:19:19.719Z,101163.78
2018-06-02T19:21:24.550Z,101167.87
2018-06-02T19:23:29.431Z,101172.06
2018-06-02T19:25:34.100Z,101164.69
2018-06-02T19:27:38.853Z,101162.34
2018-06-02T19:29:43.598Z,101167.12
2018-06-02T19:31:48.401Z,101160.09
2018-06-02T19:33:53.568Z,101162.34
2018-06-02T19:35:58.657Z,101173.80
2018-06-02T19:38:03.421Z,101158.53
2018-06-02T19:40:08.524Z,101176.37
2018-06-02T19:42:13.510Z,101183.58
2018-06-02T19:44:18.473Z,101172.15
2018-06-02T19:46:23.287Z,101186.77
2018-06-02T19:48:28.438Z,101190.38
2018-06-02T19:50:33.194Z,101192.38
2018-06-02T19:52:38.506Z,101198.91
2018-06-02T19:54:44.502Z,101192.95
2018-06-02T19:56:49.516Z,101194.95
2018-06-02T19:58:54.325Z,101194.51
2018-06-02T20:00:59.199Z,101201.38
2018-06-02T20:03:04.279Z,101208.30
2018-06-02T20:05:09.139Z,101193.52
2018-06-02T20:07:13.960Z,101156.30
2018-06-02T20:09:19.831Z,101210.73
2018-06-02T20:11:24.641Z,101210.28
2018-06-02T20:13:34.092Z,101207.34
2018-06-02T20:15:39.209Z,101165.56
2018-06-02T20:17:44.209Z,101219.63
2018-06-02T20:19:49.068Z,101219.60
2018-06-02T20:21:53.989Z,101216.83
2018-06-02T20:23:58.922Z,101217.99
2018-06-02T20:26:03.865Z,101224.10
2018-06-02T20:28:08.968Z,101229.87
2018-06-02T20:30:13.992Z,101226.89
2018-06-02T20:32:19.246Z,101224.72
2018-06-02T20:34:24.284Z,101230.78
2018-06-02T20:36:29.687Z,101224.70
2018-06-02T20:38:34.639Z,101233.98
2018-06-02T20:40:39.905Z,101236.30
2018-06-02T20:42:45.455Z,101220.48
2018-06-02T20:44:50.495Z,101167.45
2018-06-02T20:46:55.442Z,101235.09
2018-06-02T20:49:00.810Z,101232.39
2018-06-02T20:51:06.310Z,101231.98
2018-06-02T20:53:11.531Z,101231.76
2018-06-02T20:55:16.543Z,101234.57
2018-06-02T20:57:21.450Z,101217.82
2018-06-02T20:59:26.600Z,101239.34
2018-06-02T21:01:31.656Z,101236.23
2018-06-02T21:03:36.523Z,101193.47
2018-06-02T21:05:41.365Z,101240.13
2018-06-02T21:07:46.132Z,101247.66
2018-06-02T21:09:51.060Z,101248.90
2018-06-02T21:11:55.969Z,101242.09
2018-06-02T21:14:00.626Z,101240.64
2018-06-02T21:16:05.560Z,101248.23
2018-06-02T21:18:10.412Z,101213.07
2018-06-02T21:20:15.307Z,101248.62
2018-06-02T21:22:20.039Z,101249.73
2018-06-02T21:24:24.753Z,101254.44
2018-06-02T21:26:29.563Z,101255.55
2018-06-02T21:28:34.411Z,101253.77
2018-06-02T21:30:39.247Z,101254.01
2018-06-02T21:32:44.235Z,101237.23
2018-06-02T21:34:49.687Z,101178.34
2018-06-02T21:36:54.445Z,101256.58
2018-06-02T21:39:00.506Z,101257.03
2018-06-02T21:41:05.660Z,101246.95
2018-06-02T21:43:10.865Z,101268.42
2018-06-02T21:45:15.644Z,101264.97
2018-06-02T21:47:20.582Z,101254.41
2018-06-02T21:49:25.275Z,101266.65
2018-06-02T21:51:30.358Z,101265.36
2018-06-02T21:53:35.147Z,101272.06
2018-06-02T21:55:39.945Z,101274.91
2018-06-02T21:57:46.095Z,101269.46
2018-06-02T21:59:52.247Z,101278.02
2018-06-02T22:01:57.583Z,101274.32
2018-06-02T22:04:02.306Z,101277.73
2018-06-02T22:06:07.328Z,101277.08
2018-06-02T22:08:13.039Z,101283.06
2018-06-02T22:10:17.695Z,101274.95
2018-06-02T22:12:22.730Z,101279.06
2018-06-02T22:14:27.646Z,101284.78
2018-06-02T22:16:32.540Z,101286.47
2018-06-02T22:18:37.264Z,101279.08
2018-06-02T22:20:41.958Z,101242.44
2018-06-02T22:22:46.687Z,101290.69
2018-06-02T22:24:51.470Z,101283.44
2018-06-02T22:26:56.220Z,101287.45
2018-06-02T22:29:00.996Z,101249.95
2018-06-02T22:31:05.808Z,101284.65
2018-06-02T22:33:10.463Z,101284.83
2018-06-02T22:35:15.239Z,101282.73
2018-06-02T22:37:19.970Z,101272.67
2018-06-02T22:39:24.668Z,101280.66
2018-06-02T22:41:29.452Z,101282.55
2018-06-02T22:43:34.192Z,101282.48
2018-06-02T22:45:38.886Z,101285.27
2018-06-02T22:47:43.522Z,101289.28
2018-06-02T22:49:48.252Z,101289.02
2018-06-02T22:51:59.667Z,101274.09
2018-06-02T22:54:04.476Z,101292.15
2018-06-02T22:56:09.419Z,101289.70
2018-06-02T22:58:13.962Z,101294.36
2018-06-02T23:00:20.541Z,101294.67
2018-06-02T23:02:25.743Z,101303.41
2018-06-02T23:04:30.681Z,101299.33
2018-06-02T23:06:35.626Z,101293.90
2018-06-02T23:08:40.371Z,101303.63
2018-06-02T23:10:45.168Z,101299.59
2018-06-02T23:12:49.975Z,101299.21
2018-06-02T23:14:54.707Z,101296.11
2018-06-02T23:16:59.360Z,101297.34
2018-06-02T23:19:04.116Z,101289.44
2018-06-02T23:21:08.873Z,101299.21
2018-06-02T23:23:13.619Z,101277.02
2018-06-02T23:25:18.300Z,101293.96
2018-06-02T23:27:23.025Z,101281.92
2018-06-02T23:29:27.674Z,101296.65
2018-06-02T23:31:32.452Z,101300.05
2018-06-02T23:33:37.203Z,101295.72
2018-06-02T23:35:42.301Z,101301.87
2018-06-02T23:37:47.051Z,101296.98